Aérodrome :
LOGIN :

S'inscrire | Disclaimer

   EN    FR    IT 

 










Légende :    VFR   VFR Marginal   IFR   IFR Intensif   IFR Très Intensif
Visi : 
Plafond : 
>= 8 km
>= 3000ft
5 à 8 km
1000 à 3000 ft
1500m à 5 km
500 à 1000 ft
800 à 1500m
200 à 500 ft
< 800m
< 200 ft
Symboles :   Orages  Brouillard  Fortes neiges  Fortes précipitations  Vent > 20 kt
SIGMETs :   Divers  Orages  Givrage  Turbulence  Onde Orograph.  Cendres Volcan.







- Altitude de l'aérodrome : 74 ft
- Code IATA : EIN


EHEH - Eindhoven

DERNIER METAR :
  • 191825Z AUTO VRB02KT 9999 FEW034 OVC038 10/08 Q1025 BLU 01005KT CAVOK

METARs EXPIRÉS :
  • 191755Z AUTO 02003KT 320V020 9999 BKN042 10/07 Q1025 BLU 01005KT CAVOK
  • 191725Z AUTO 34003KT 9999 NCD 11/08 Q1025 BLU 01005KT CAVOK
  • 191655Z AUTO 35005KT 280V020 9999 OVC150 13/08 Q1024 BLU 01007KT 9999 FEW035
  • 191625Z AUTO 35004KT 250V040 9999 OVC042 14/09 Q1024 BLU 01007KT 9999 FEW035
  • 191555Z AUTO 34005KT 300V010 9999 FEW032 SCT037 15/09 Q1024 BLU 01007KT 9999 FEW035
  • 191525Z AUTO 35004KT 330V050 9999 NCD 16/09 Q1024 BLU 01007KT 9999 FEW035

TAF TAF EHEH
Valide du 19 à 18h jusqu'au 21 à 00h UTC


191730Z 1918/2024 VRB03KT CAVOK
PROB40
TEMPO 2000/2008 2000 BR MIFG
BECMG 2010/2013 32004KT
BECMG 2018/2021 22003KT
Pas de NOTAMs connus pour ce terrain.



MET'MAP, la Météo Aéronautique d'un coup d'oeil ! - Copyright ORBIFLY Décembre 2007 - Disclaimer

ORBIFLY MET'MAP TEAM :

Programmation & Développement : Alexandra Zaïnal
Conception & Développement : Baudouin d'Aumeries
Co-Programmation & Développement : Marc-Olivier Méhu
Soutien technique & logistique : Manuel Goepfert

Contact : metmap@orbifly.com




SOURCES & CREDITS :

   NOAA